Amber, Washington
Current Conditions -  °F | °C
As of 11:58 PM on Thursday 23 Oct 2014 (Local Time) from KSKA Reporting Station
Clear Clear  
Wind Chill: 38°   Ceiling: Unl
Heat Index: 44°   Visibility: 10mi
Dew Point: 42°   Wind: 10mph
Humidity: 92%   Direction: 180°S
Pressure: 29.98"   Gusts: NA
Location:  47.411°N, 117.628°W
Report Text: KSKA 240658Z AUTO 18009KT 10SM CLR 07/05 A2998 RMK AO2 SLP160 T00650053
Loading
Personal Weather Stations






























Interactive Weather Map New forecast layout! Learn more

10-Day Weather Forecast

Advertisements
Track Severe Weather on mobile